Leaders and Best
Skip Navigation Links
Results
Details
Mobile Results
29 September 2013
Page 1 of 5 (226 items)
[1]2345
Pos
Race No
Fav
Name
Gun Time
Net Time
Category
Cat Pos
Gender
Gen Pos
City
Pace
11108Paul Mayer17:59.9FinishedOverall1Male1 5:48 min/m
21112Dave Furey18:54.4Finished55-591Male2 6:05 min/m
31118Jeff Rothstein19:43.3Finished50-541Male3 6:21 min/m
41692Jeffrey Clark20:38.5Finished45-491Male4Ann Arbor6:39 min/m
51059Raphael Nishimaura20:55.1Finished25-291Male5 6:44 min/m
61662Hien Lam21:02.4Finished25-292Male6Ann Arbor6:47 min/m
71719James Gedris21:15.3Finished15-191Male7Grosse Ile6:51 min/m
81095Kelly Valente21:15.4FinishedOverall1Female1 6:51 min/m
91651Dan Frayman21:31.8Finished35-391Male8Ypsilanti6:52 min/m
101674Jim Ankoviak21:38.9Finished45-492Male9Swanton6:57 min/m
111649Clark Baker21:43.8Finished25-293Male10Dexter7:00 min/m
121720Maria Gedris21:57.3Finished15-191Female2Grosse Ile7:04 min/m
131746Sydney Kreger21:57.3Finished15-192Female3Grosse Iel7:04 min/m
141661Brad Kloha22:08.8Finished25-294Male11Mount Pleasant7:08 min/m
151668Joshua Salvner22:19.6Finished25-295Male12Ann Arbor7:10 min/m
161219Layne Vandenberg22:24.9Finished20-241Female4Ann Arbor7:12 min/m
171800Jordan Silvester22:35.3Finished15-192Male13Ann Arbor7:13 min/m
181227Robert Zielinski23:01.1Finished35-392Male14Livonia7:25 min/m
191655K. Lauren Green23:04.1Finished20-242Female5Kalamazoo7:26 min/m
201711Henriette Elvang23:20.8Finished35-391Female6Ann Arbor7:30 min/m
211698Daniel Connochie23:26.8Finished20-241Male15Troy7:31 min/m
221113Wally Herrala23:37.2Finished65-691Male16 7:36 min/m
231681Julie Bockey23:40.6Finished35-392Female7Temperance7:37 min/m
241767Derek Miller24:11.2Finished25-296Male17Ann Arbor7:39 min/m
251205Sam Sorscher24:26.4Finished15-193Male18Ann Arbor7:49 min/m
261704Dana Davidson24:28.6Finished20-243Female8Ann Arbor7:53 min/m
271671Thomas Zeimet24:31.5Finished55-592Male19Ann Arbor7:52 min/m
281703Lori Culloty24:45.4Finished30-341Female9Holly7:59 min/m
291114Neal Little24:59.4Finished60-641Male20 8:02 min/m
301087Annajane Ward25:02.3Finished15-193Female10 8:03 min/m
311073Marc Dargis25:02.6Finished1-141Male21 8:00 min/m
321794Tom Sanford25:10.6Finished60-642Male22Saline8:07 min/m
331063Jessica Hoard25:16.3FinishedUnknown1Female11 8:06 min/m
341064Nate Hoard25:16.3Finished30-341Male23 8:06 min/m
351749Danny Langa25:19.6Finished15-194Male24Ann Arbor8:06 min/m
361682Aaron Borgman25:24.8Finished35-393Male25Ypsilanti8:11 min/m
371650Kevin Cohen25:30.8Finished50-542Male26Oak Park8:10 min/m
381776Pamela Navarrete25:33.4Finished30-342Female12Ann Arbor8:14 min/m
391699Julie Cprek25:51.4Finished25-291Female13Troy8:18 min/m
401664Michelle Lin25:53.8Finished25-292Female14Ann Arbor8:18 min/m
411667Amy Mikhail25:54.6Finished45-491Female15Ann Arbor8:18 min/m
421210Bernadette Stetz25:54.8Finished15-194Female16Ann Arbor8:18 min/m
431224Tracy Welch-Konett26:16.6Finished30-343Female17Ann Arbor8:24 min/m
441054Michael Cieslar26:21.9Finished25-297Male27 8:25 min/m
451658Brad Jablonski26:23.6Finished40-441Male28Warren8:29 min/m
461700Tom Crawford26:30.6Finished45-493Male29Ann Arbor8:27 min/m
471105Mike Schmidl26:36.3Finished25-298Male30 8:33 min/m
481117Arlene Gokee26:36.9Finished55-591Female18 8:34 min/m
491779Francisco Palomino26:41.6Finished35-394Male31Ann Arbor8:34 min/m
501072Genevieve Dargis26:45.4Finished50-541Female19 8:33 min/m
Page 1 of 5 (226 items)
[1]2345

HyperLink Copyright (c) G Vincent, 2017